Time;durP1;ratioP1;P1;durP2;ratioP2;P2;SDS_P1;SDS_P2;PMS_P1;PMS_P2;Temp;Humidity;BMP_temperature;BMP_pressure;BME280_temperature;BME280_humidity;BME280_pressure;Samples;Min_cycle;Max_cycle;Signal;HPM_P1;HPM_P2
2023/10/13 00:00:58;;;;;;;0.20;0.20;;;;;;;20.21;67.27;100117.25;5069526;28;20086;-58
2023/10/13 00:03:23;;;;;;;0.10;0.10;;;;;;;20.22;68.68;100118.09;5068450;28;20502;-58
2023/10/13 00:05:52;;;;;;;0.10;0.10;;;;;;;20.21;68.36;100108.25;5070459;28;20024;-58
2023/10/13 00:08:18;;;;;;;0.10;0.10;;;;;;;20.21;69.30;100113.66;5066347;28;20033;-57
2023/10/13 00:10:43;;;;;;;0.10;0.10;;;;;;;20.20;68.00;100110.09;5073264;28;20051;-57
2023/10/13 00:13:12;;;;;;;0.13;0.13;;;;;;;20.16;66.15;100105.91;5090400;28;20069;-58
2023/10/13 00:16:09;;;;;;;0.10;0.10;;;;;;;20.25;65.66;100109.75;5089375;28;20061;-58
2023/10/13 00:18:34;;;;;;;0.10;0.10;;;;;;;20.31;65.32;100114.75;5089366;28;20415;-58
2023/10/13 00:21:12;;;;;;;0.20;0.20;;;;;;;20.39;65.07;100105.13;5090511;28;20266;-58
2023/10/13 00:23:53;;;;;;;0.20;0.20;;;;;;;20.45;63.28;100101.97;5089895;28;20031;-57
2023/10/13 00:26:25;;;;;;;0.10;0.10;;;;;;;20.50;64.83;100098.94;5080630;28;20039;-57
2023/10/13 00:28:58;;;;;;;0.10;0.10;;;;;;;20.52;65.72;100097.00;5082306;28;20028;-58
2023/10/13 00:31:33;;;;;;;0.10;0.10;;;;;;;20.53;66.47;100098.72;5085999;28;20028;-57
2023/10/13 00:34:09;;;;;;;0.15;0.15;;;;;;;20.50;64.82;100094.41;5090256;28;20031;-57
2023/10/13 00:36:35;;;;;;;0.10;0.10;;;;;;;20.54;63.90;100093.19;5088216;28;20111;-57
2023/10/13 00:39:00;;;;;;;0.10;0.10;;;;;;;20.57;64.90;100090.28;5089917;28;20073;-57
2023/10/13 00:41:50;;;;;;;0.10;0.10;;;;;;;20.57;64.95;100093.00;5089416;28;20547;-58
2023/10/13 00:44:11;;;;;;;0.10;0.10;;;;;;;20.51;65.60;100081.78;5089145;28;20040;-57
2023/10/13 00:46:38;;;;;;;0.10;0.10;;;;;;;20.53;64.51;100094.19;5083872;28;20497;-57
2023/10/13 00:49:05;;;;;;;0.10;0.10;;;;;;;20.57;63.69;100093.00;5086698;28;20032;-57
2023/10/13 00:51:40;;;;;;;0.10;0.10;;;;;;;20.57;63.35;100084.00;5086579;28;20020;-57
2023/10/13 00:54:11;;;;;;;0.20;0.20;;;;;;;20.58;64.66;100081.19;5088523;28;20107;-57
2023/10/13 00:56:46;;;;;;;0.10;0.10;;;;;;;20.59;65.44;100082.91;5074254;28;20102;-57
2023/10/13 00:59:14;;;;;;;0.20;0.20;;;;;;;20.52;65.80;100081.66;5086893;28;20032;-57
2023/10/13 01:01:42;;;;;;;0.10;0.10;;;;;;;20.54;65.77;100086.94;5080571;28;20032;-57
2023/10/13 01:04:11;;;;;;;0.10;0.10;;;;;;;20.49;65.23;100092.66;5077229;28;20081;-57
2023/10/13 01:06:37;;;;;;;0.20;0.20;;;;;;;20.49;65.67;100091.81;5084340;28;20020;-57
2023/10/13 01:09:16;;;;;;;0.20;0.20;;;;;;;20.49;65.36;100087.25;5083610;28;20790;-57
2023/10/13 01:11:48;;;;;;;0.10;0.10;;;;;;;20.50;65.81;100082.72;5086644;28;20494;-57
2023/10/13 01:14:17;;;;;;;0.20;0.20;;;;;;;20.49;64.51;100083.72;5069523;28;20036;-57
2023/10/13 01:16:45;;;;;;;0.10;0.10;;;;;;;20.51;63.47;100084.47;5069413;28;20055;-58
2023/10/13 01:19:21;;;;;;;0.10;0.10;;;;;;;20.56;62.49;100087.72;5072457;28;20024;-57
2023/10/13 01:21:50;;;;;;;0.10;0.10;;;;;;;20.60;62.92;100083.78;5069681;28;20111;-57
2023/10/13 01:24:18;;;;;;;0.10;0.10;;;;;;;20.62;62.82;100077.31;5079245;28;20550;-57
2023/10/13 01:26:44;;;;;;;0.10;0.10;;;;;;;20.63;62.44;100084.44;5076831;28;20074;-57
2023/10/13 01:29:13;;;;;;;0.15;0.15;;;;;;;20.66;62.13;100083.34;5088983;28;20395;-57
2023/10/13 01:31:46;;;;;;;0.10;0.10;;;;;;;20.52;61.50;100043.81;5081444;28;20542;-57
2023/10/13 01:34:22;;;;;;;0.20;0.20;;;;;;;20.61;61.60;100072.88;5069385;28;20063;-58
2023/10/13 01:36:54;;;;;;;0.10;0.10;;;;;;;20.62;61.93;100065.63;5068768;28;20032;-57
2023/10/13 01:39:28;;;;;;;0.10;0.10;;;;;;;20.57;62.03;100067.81;5088268;28;20085;-57
2023/10/13 01:41:57;;;;;;;0.20;0.20;;;;;;;20.52;61.66;100064.56;5071692;28;20032;-57
2023/10/13 01:44:27;;;;;;;0.10;0.10;;;;;;;20.46;62.46;100060.47;5089951;28;20143;-58
2023/10/13 01:46:53;;;;;;;0.10;0.10;;;;;;;20.37;63.67;100052.16;5087536;28;20484;-57
2023/10/13 01:49:21;;;;;;;0.10;0.10;;;;;;;20.22;64.69;100050.56;5088960;28;20116;-57
2023/10/13 01:51:47;;;;;;;0.10;0.10;;;;;;;20.11;65.06;100043.19;5072364;28;20017;-58
2023/10/13 01:54:13;;;;;;;0.10;0.10;;;;;;;20.01;65.73;100050.22;5088405;28;20036;-57
2023/10/13 01:56:45;;;;;;;0.10;0.10;;;;;;;19.91;65.76;100034.75;5093123;28;20035;-57
2023/10/13 01:59:11;;;;;;;0.20;0.20;;;;;;;19.78;67.51;100042.88;5089583;28;20031;-57
2023/10/13 02:01:37;;;;;;;0.10;0.10;;;;;;;19.73;66.61;100031.53;5093133;28;20036;-58
2023/10/13 02:04:03;;;;;;;0.10;0.10;;;;;;;19.69;65.96;100030.00;5091176;28;20384;-57
2023/10/13 02:06:33;;;;;;;0.13;0.13;;;;;;;19.68;65.12;100030.97;5092485;28;20109;-58
2023/10/13 02:09:10;;;;;;;0.20;0.20;;;;;;;19.61;64.80;100018.88;5092644;28;20365;-57
2023/10/13 02:11:37;;;;;;;0.10;0.10;;;;;;;19.59;65.21;100024.38;5093081;28;20103;-57
2023/10/13 02:14:03;;;;;;;0.13;0.13;;;;;;;19.55;67.05;100019.31;5089770;28;20028;-57
2023/10/13 02:16:30;;;;;;;0.15;0.15;;;;;;;19.43;68.63;100022.84;5092731;28;20024;-58
2023/10/13 02:18:57;;;;;;;0.20;0.20;;;;;;;19.33;69.97;100013.66;5088274;28;20028;-57
2023/10/13 02:21:31;;;;;;;0.20;0.20;;;;;;;19.21;70.56;100011.75;5087872;28;20156;-57
2023/10/13 02:24:02;;;;;;;0.20;0.20;;;;;;;19.06;71.88;100015.50;5092888;28;20052;-57
2023/10/13 02:26:30;;;;;;;0.20;0.20;;;;;;;18.93;72.16;100011.91;5075202;28;20043;-57
2023/10/13 02:29:06;;;;;;;0.20;0.20;;;;;;;18.82;72.87;100009.91;5084108;28;20372;-57
2023/10/13 02:31:33;;;;;;;0.10;0.10;;;;;;;18.78;73.50;100007.53;5087000;28;20032;-58
2023/10/13 02:34:00;;;;;;;0.10;0.10;;;;;;;18.69;73.74;100009.00;5092478;28;20028;-57
2023/10/13 02:36:36;;;;;;;0.20;0.20;;;;;;;18.62;72.81;100002.25;5089031;28;20032;-58
2023/10/13 02:39:08;;;;;;;0.20;0.20;;;;;;;18.57;73.46;100001.69;5090205;28;20035;-58
2023/10/13 02:41:37;;;;;;;0.15;0.15;;;;;;;18.54;74.43;100001.03;5090979;28;20027;-57
2023/10/13 02:44:06;;;;;;;0.20;0.20;;;;;;;18.52;74.17;99989.50;5091397;28;20031;-58
2023/10/13 02:46:35;;;;;;;0.20;0.20;;;;;;;18.50;74.35;99996.81;5084211;28;20070;-57
2023/10/13 02:49:09;;;;;;;0.20;0.20;;;;;;;18.48;74.89;99990.66;5083981;28;20028;-57
2023/10/13 02:51:35;;;;;;;0.20;0.20;;;;;;;18.44;74.77;99994.50;5092165;28;20532;-57
2023/10/13 02:54:11;;;;;;;0.10;0.10;;;;;;;18.36;75.51;99993.16;5091234;28;20036;-58
2023/10/13 02:56:38;;;;;;;0.20;0.20;;;;;;;18.28;75.59;99986.53;5074190;28;20051;-58
2023/10/13 02:59:07;;;;;;;0.13;0.13;;;;;;;18.24;75.87;99985.88;5088668;28;20036;-57
2023/10/13 03:01:34;;;;;;;0.20;0.20;;;;;;;18.19;76.02;99990.69;5091939;28;20032;-58
2023/10/13 03:04:00;;;;;;;0.20;0.20;;;;;;;18.17;75.54;99981.81;5090845;28;20032;-57
2023/10/13 03:06:32;;;;;;;0.20;0.20;;;;;;;18.18;74.15;99980.00;5088766;28;20046;-57
2023/10/13 03:09:13;;;;;;;0.20;0.20;;;;;;;18.15;74.23;99972.97;5084883;28;20020;-57
2023/10/13 03:11:47;;;;;;;0.20;0.20;;;;;;;18.17;74.15;99978.28;5082759;28;20041;-57
2023/10/13 03:14:23;;;;;;;0.20;0.20;;;;;;;18.21;73.45;99979.81;5071595;28;20045;-58
2023/10/13 03:16:53;;;;;;;0.20;0.20;;;;;;;18.18;74.01;99963.84;5071539;28;20031;-58
2023/10/13 03:19:19;;;;;;;0.20;0.20;;;;;;;18.17;73.63;99957.59;5083743;28;20035;-57
2023/10/13 03:21:54;;;;;;;0.20;0.20;;;;;;;18.20;73.02;99975.41;5089726;28;20680;-59
2023/10/13 03:24:23;;;;;;;0.20;0.20;;;;;;;18.20;72.50;99960.09;5093536;28;20024;-59
2023/10/13 03:26:52;;;;;;;0.20;0.20;;;;;;;18.23;71.75;99968.00;5092611;28;20166;-59
2023/10/13 03:29:21;;;;;;;0.20;0.20;;;;;;;18.23;71.69;99965.31;5094075;28;20020;-60
2023/10/13 03:31:55;;;;;;;0.20;0.20;;;;;;;18.22;71.81;99958.16;5083365;28;20115;-59
2023/10/13 03:34:20;;;;;;;0.20;0.20;;;;;;;18.22;72.04;99954.59;5073691;28;20173;-60
2023/10/13 03:36:58;;;;;;;0.20;0.20;;;;;;;18.17;71.08;99957.59;5086803;28;20027;-59
2023/10/13 03:39:32;;;;;;;0.20;0.20;;;;;;;18.23;71.23;99962.59;5092168;28;20069;-60
2023/10/13 03:41:58;;;;;;;0.20;0.20;;;;;;;18.29;69.92;99967.59;5092304;28;20036;-59
2023/10/13 03:44:27;;;;;;;0.20;0.20;;;;;;;18.31;69.64;99957.59;5088647;28;20039;-60
2023/10/13 03:46:54;;;;;;;0.20;0.20;;;;;;;18.36;68.80;99963.53;5075279;28;20369;-59
2023/10/13 03:49:25;;;;;;;0.20;0.20;;;;;;;18.41;69.00;99954.31;5092283;28;20020;-59
2023/10/13 03:51:54;;;;;;;0.20;0.20;;;;;;;18.42;69.72;99950.66;5092018;28;20551;-59
2023/10/13 03:54:19;;;;;;;0.20;0.20;;;;;;;18.42;69.60;99956.91;5088489;28;20035;-59
2023/10/13 03:56:45;;;;;;;0.20;0.20;;;;;;;18.40;69.26;99949.91;5085589;28;20032;-59
2023/10/13 04:04:11;;;;;;;0.20;0.20;;;;;;;18.27;70.13;99937.19;5093134;28;20024;-59
2023/10/13 04:17:28;;;;;;;0.20;0.20;;;;;;;18.06;71.28;99938.59;5076680;28;20055;-59
2023/10/13 04:33:36;;;;;;;0.20;0.20;;;;;;;18.04;69.74;99918.09;5069056;28;20122;-58
2023/10/13 04:41:39;;;;;;;0.20;0.20;;;;;;;17.96;72.71;99913.22;5081324;28;20033;-58
2023/10/13 04:44:47;;;;;;;0.20;0.20;;;;;;;17.93;72.73;99908.03;5087278;28;20584;-58
2023/10/13 05:05:21;;;;;;;0.30;0.30;;;;;;;18.09;70.57;99889.94;5069512;28;20447;-58
2023/10/13 06:29:53;;;;;;;0.20;0.20;;;;;;;19.21;65.77;99895.78;5078534;28;20073;-58
2023/10/13 06:32:19;;;;;;;0.20;0.20;;;;;;;19.33;64.36;99897.66;5079090;28;20040;-58
2023/10/13 06:34:45;;;;;;;0.20;0.20;;;;;;;19.42;64.36;99899.72;5082220;28;20478;-58
2023/10/13 06:39:57;;;;;;;0.10;0.10;;;;;;;19.58;63.46;99897.66;5089024;28;20391;-58
2023/10/13 06:42:27;;;;;;;0.20;0.20;;;;;;;19.71;63.22;99898.50;5090796;28;20024;-58
2023/10/13 06:44:56;;;;;;;0.20;0.20;;;;;;;19.74;63.06;99892.88;5088718;28;20031;-58
2023/10/13 06:47:22;;;;;;;0.20;0.20;;;;;;;19.79;62.37;99898.81;5082988;28;20030;-58
2023/10/13 06:49:51;;;;;;;0.20;0.20;;;;;;;19.85;62.29;99898.38;5071701;28;20387;-58
2023/10/13 06:52:17;;;;;;;0.20;0.20;;;;;;;19.92;61.49;99902.34;5083143;28;20032;-57
2023/10/13 06:54:43;;;;;;;0.20;0.20;;;;;;;19.90;61.54;99903.47;5087225;28;20032;-58
2023/10/13 06:57:14;;;;;;;0.20;0.20;;;;;;;19.84;61.31;99903.88;5089278;28;20020;-58
2023/10/13 06:59:42;;;;;;;0.20;0.20;;;;;;;19.78;62.01;99921.41;5091463;28;20036;-57
2023/10/13 07:02:09;;;;;;;0.20;0.20;;;;;;;19.73;62.37;99918.16;5086347;28;20494;-58
2023/10/13 07:04:42;;;;;;;0.13;0.13;;;;;;;19.69;63.67;99910.41;5085075;28;20028;-58
2023/10/13 07:07:10;;;;;;;0.20;0.20;;;;;;;19.78;63.70;99907.91;5081252;28;20048;-57
2023/10/13 07:12:06;;;;;;;0.10;0.10;;;;;;;20.01;60.39;99909.81;5077494;28;20531;-57
2023/10/13 07:14:40;;;;;;;0.20;0.20;;;;;;;20.22;60.53;99916.38;5070512;28;20047;-58
2023/10/13 07:17:07;;;;;;;0.20;0.20;;;;;;;21.07;56.74;99907.22;5084498;28;20024;-58
2023/10/13 07:19:33;;;;;;;0.20;0.20;;;;;;;22.24;53.61;99911.25;5077339;28;20024;-58
2023/10/13 07:22:19;;;;;;;0.20;0.20;;;;;;;23.92;50.28;99905.78;5069365;28;20029;-58
2023/10/13 07:24:48;;;;;;;0.10;0.10;;;;;;;25.62;45.27;99903.41;5079677;28;20032;-58
2023/10/13 07:27:24;;;;;;;0.10;0.10;;;;;;;26.48;43.65;99903.94;5081951;28;20028;-58
2023/10/13 07:30:14;;;;;;;0.10;0.10;;;;;;;27.69;40.45;99902.34;5083902;28;20055;-58
2023/10/13 07:32:46;;;;;;;0.10;0.10;;;;;;;28.32;39.42;99901.84;5075432;28;20198;-58
2023/10/13 07:35:17;;;;;;;0.10;0.10;;;;;;;28.04;39.08;99897.63;5083960;28;20036;-58
2023/10/13 07:37:43;;;;;;;0.10;0.10;;;;;;;26.29;41.58;99900.47;5078080;28;20483;-58
2023/10/13 07:40:39;;;;;;;0.10;0.10;;;;;;;24.59;44.68;99890.56;5077952;28;20040;-58
2023/10/13 07:43:00;;;;;;;0.10;0.10;;;;;;;23.45;47.82;99890.97;5070352;28;20040;-58
2023/10/13 07:45:36;;;;;;;0.10;0.10;;;;;;;23.03;49.26;99903.63;5081067;28;20035;-58
2023/10/13 07:48:12;;;;;;;0.10;0.10;;;;;;;22.85;50.57;99907.06;5072041;28;20039;-58
2023/10/13 07:50:41;;;;;;;0.10;0.10;;;;;;;23.01;50.84;99900.22;5084624;28;20063;-57
2023/10/13 07:53:28;;;;;;;0.10;0.10;;;;;;;23.44;49.50;99890.09;5086796;28;20028;-58
2023/10/13 07:55:56;;;;;;;0.10;0.10;;;;;;;23.79;48.07;99899.75;5075777;28;20028;-58
2023/10/13 07:58:27;;;;;;;0.10;0.10;;;;;;;23.74;48.15;99902.00;5074089;28;20028;-58
2023/10/13 08:08:38;;;;;;;0.10;0.10;;;;;;;23.16;50.37;99884.47;5086403;28;20040;-59
2023/10/13 08:13:53;;;;;;;0.10;0.10;;;;;;;23.39;51.21;99899.66;5086852;28;20028;-59
2023/10/13 08:16:22;;;;;;;0.10;0.10;;;;;;;23.51;51.28;99900.44;5082618;28;20028;-59
2023/10/13 08:18:52;;;;;;;0.10;0.10;;;;;;;23.58;51.09;99904.31;5085401;28;20028;-60
2023/10/13 08:21:25;;;;;;;0.10;0.10;;;;;;;23.67;51.13;99898.09;5090143;28;20064;-60
2023/10/13 08:26:30;;;;;;;0.10;0.10;;;;;;;24.27;48.49;99903.50;5085642;28;20044;-59
2023/10/13 08:48:07;;;;;;;0.08;0.08;;;;;;;29.22;38.18;99899.22;5084659;28;20107;-59
2023/10/13 08:50:52;;;;;;;0.05;0.05;;;;;;;29.90;37.34;99901.53;5081975;28;20088;-59
2023/10/13 08:53:44;;;;;;;0.00;0.00;;;;;;;30.66;36.88;99888.88;5087811;28;20511;-59
2023/10/13 09:01:48;;;;;;;0.00;0.00;;;;;;;31.79;34.29;99877.84;5079587;28;20036;-59
2023/10/13 09:12:14;;;;;;;0.00;0.00;;;;;;;29.97;36.16;99867.72;5083375;28;20058;-58
2023/10/13 09:14:44;;;;;;;0.00;0.00;;;;;;;29.57;35.94;99865.09;5073601;28;20067;-58
2023/10/13 09:19:55;;;;;;;0.00;0.00;;;;;;;29.38;33.99;99854.47;5071255;28;20534;-57
2023/10/13 09:22:35;;;;;;;0.00;0.00;;;;;;;29.96;33.93;99856.94;5070848;28;20028;-57
2023/10/13 09:25:02;;;;;;;0.00;0.00;;;;;;;30.83;33.39;99861.16;5078943;28;20220;-57
2023/10/13 09:27:32;;;;;;;0.00;0.00;;;;;;;31.50;31.77;99859.41;5075359;28;20028;-57
2023/10/13 09:30:23;;;;;;;0.00;0.00;;;;;;;31.49;31.99;99863.22;5074749;28;20622;-58
2023/10/13 09:33:04;;;;;;;0.00;0.00;;;;;;;31.33;31.21;99859.75;5078027;28;20031;-58
2023/10/13 09:35:34;;;;;;;0.00;0.00;;;;;;;31.60;31.58;99856.38;5074715;28;20576;-59
2023/10/13 09:38:02;;;;;;;0.00;0.00;;;;;;;31.43;31.00;99860.34;5082467;28;20055;-58
2023/10/13 09:40:34;;;;;;;0.00;0.00;;;;;;;30.92;31.36;99858.34;5074119;28;20028;-58
2023/10/13 09:43:06;;;;;;;0.00;0.00;;;;;;;31.24;31.67;99849.81;5081081;28;20085;-58
2023/10/13 09:45:38;;;;;;;0.00;0.00;;;;;;;31.58;30.75;99836.47;5071725;28;20051;-58
2023/10/13 09:48:16;;;;;;;0.00;0.00;;;;;;;32.25;30.74;99838.09;5082963;28;20487;-58
2023/10/13 09:50:44;;;;;;;0.00;0.00;;;;;;;32.66;29.86;99831.00;5069521;28;20062;-58
2023/10/13 09:53:13;;;;;;;0.00;0.00;;;;;;;33.01;29.41;99821.84;5076410;28;20472;-58
2023/10/13 09:55:44;;;;;;;0.00;0.00;;;;;;;33.40;30.01;99829.59;5075088;28;20133;-58
2023/10/13 09:58:15;;;;;;;0.00;0.00;;;;;;;33.27;29.11;99827.59;5073400;28;20069;-58
2023/10/13 10:00:46;;;;;;;0.00;0.00;;;;;;;33.35;29.66;99823.81;5076422;28;20035;-58
2023/10/13 10:03:30;;;;;;;0.00;0.00;;;;;;;33.58;28.45;99818.09;5072167;28;20525;-58
2023/10/13 10:06:07;;;;;;;0.00;0.00;;;;;;;34.01;28.72;99814.13;5075465;28;20028;-58
2023/10/13 10:08:34;;;;;;;0.00;0.00;;;;;;;33.95;28.11;99809.44;5076511;28;20650;-58
2023/10/13 10:11:04;;;;;;;0.00;0.00;;;;;;;33.66;28.62;99810.50;5078357;28;20036;-58
2023/10/13 10:14:01;;;;;;;0.00;0.00;;;;;;;33.54;28.88;99812.16;5080332;28;20040;-56
2023/10/13 10:17:00;;;;;;;0.00;0.00;;;;;;;33.63;28.11;99804.53;5083544;28;20052;-58
2023/10/13 10:19:28;;;;;;;0.00;0.00;;;;;;;33.78;27.98;99803.38;5070890;28;20122;-58
2023/10/13 10:22:20;;;;;;;0.00;0.00;;;;;;;34.06;27.82;99795.03;5075411;28;20029;-58
2023/10/13 10:24:59;;;;;;;0.00;0.00;;;;;;;34.26;27.29;99801.50;5081769;28;20032;-59
2023/10/13 10:27:31;;;;;;;0.00;0.00;;;;;;;34.03;27.54;99798.22;5080840;28;20032;-58
2023/10/13 10:29:58;;;;;;;0.00;0.00;;;;;;;34.04;27.44;99803.53;5088609;28;20028;-58
2023/10/13 10:36:00;;;;;;;0.00;0.00;;;;;;;34.49;27.32;99796.53;5041447;28;20048;-58
2023/10/13 10:40:58;;;;;;;0.00;0.00;;;;;;;34.76;27.33;99787.25;5084303;28;20028;-58
2023/10/13 10:43:43;;;;;;;0.00;0.00;;;;;;;34.78;26.89;99779.56;5081289;28;20024;-58
2023/10/13 10:46:27;;;;;;;0.00;0.00;;;;;;;34.60;27.39;99782.09;5073243;28;20039;-59
2023/10/13 10:49:02;;;;;;;0.00;0.00;;;;;;;34.50;27.72;99781.63;5081787;28;20455;-58
2023/10/13 10:51:31;;;;;;;0.00;0.00;;;;;;;34.55;27.49;99774.44;5077615;28;20024;-58
2023/10/13 10:54:10;;;;;;;0.00;0.00;;;;;;;34.96;26.47;99779.81;5077954;28;20506;-58
2023/10/13 10:56:36;;;;;;;0.00;0.00;;;;;;;35.17;26.48;99774.13;5073580;28;20107;-58
2023/10/13 10:59:18;;;;;;;0.00;0.00;;;;;;;35.15;26.26;99779.00;5083487;28;20116;-58
2023/10/13 11:01:47;;;;;;;0.00;0.00;;;;;;;34.90;27.05;99771.53;5083195;28;20028;-60
2023/10/13 11:06:56;;;;;;;0.00;0.00;;;;;;;34.90;26.20;99766.88;5079339;28;20036;-58
2023/10/13 11:11:52;;;;;;;0.00;0.00;;;;;;;34.45;26.25;99759.31;5077011;28;20136;-58
2023/10/13 11:14:23;;;;;;;0.00;0.00;;;;;;;34.71;27.12;99740.03;5076855;28;20125;-58
2023/10/13 11:16:53;;;;;;;0.00;0.00;;;;;;;35.13;26.23;99739.63;5069280;28;20024;-58
2023/10/13 11:19:34;;;;;;;0.00;0.00;;;;;;;35.25;25.74;99737.94;5082772;28;20656;-58
2023/10/13 11:22:42;;;;;;;0.00;0.00;;;;;;;35.51;26.26;99737.91;5082108;28;20031;-58
2023/10/13 11:25:11;;;;;;;0.00;0.00;;;;;;;35.51;25.56;99726.84;5072359;28;20373;-58
2023/10/13 11:27:59;;;;;;;0.00;0.00;;;;;;;35.12;26.41;99710.28;5077912;28;20716;-58
2023/10/13 11:30:31;;;;;;;0.00;0.00;;;;;;;34.47;26.27;99704.69;5074803;28;20043;-59
2023/10/13 11:33:08;;;;;;;0.00;0.00;;;;;;;34.66;25.75;99706.66;5071661;28;20487;-58
2023/10/13 11:38:27;;;;;;;0.00;0.00;;;;;;;35.49;26.61;99694.91;5079725;28;20056;-59
2023/10/13 11:43:52;;;;;;;0.00;0.00;;;;;;;35.50;25.80;99683.59;5081416;28;20027;-59
2023/10/13 11:49:16;;;;;;;0.00;0.00;;;;;;;35.41;26.08;99676.63;5079905;28;20025;-59
2023/10/13 11:51:51;;;;;;;0.00;0.00;;;;;;;35.66;26.73;99669.31;5084670;28;20454;-59
2023/10/13 11:54:17;;;;;;;0.00;0.00;;;;;;;35.33;26.73;99671.31;5082981;28;20023;-59
2023/10/13 11:56:44;;;;;;;0.00;0.00;;;;;;;34.90;27.56;99667.34;5082226;28;20089;-60
2023/10/13 11:59:17;;;;;;;0.00;0.00;;;;;;;34.41;27.78;99662.22;5082998;28;20560;-59
2023/10/13 12:04:49;;;;;;;0.00;0.00;;;;;;;34.15;27.62;99655.75;5070999;28;20050;-60
2023/10/13 12:07:17;;;;;;;0.00;0.00;;;;;;;33.96;27.41;99664.81;5076353;28;20126;-59
2023/10/13 12:12:26;;;;;;;0.00;0.00;;;;;;;33.72;27.14;99646.91;5081459;28;20048;-60
2023/10/13 12:14:55;;;;;;;0.00;0.00;;;;;;;33.52;27.80;99637.69;5076486;28;20034;-60
2023/10/13 12:17:34;;;;;;;0.00;0.00;;;;;;;33.47;27.70;99640.22;5073883;28;20637;-60
2023/10/13 12:20:00;;;;;;;0.00;0.00;;;;;;;32.97;27.96;99644.13;5076936;28;20017;-59
2023/10/13 12:22:28;;;;;;;0.00;0.00;;;;;;;32.97;28.26;99633.09;5072535;28;20032;-60
2023/10/13 12:24:57;;;;;;;0.00;0.00;;;;;;;32.98;28.86;99632.03;5081669;28;20024;-60
2023/10/13 12:27:23;;;;;;;0.00;0.00;;;;;;;32.53;28.98;99624.28;5071399;28;20047;-60
2023/10/13 12:29:51;;;;;;;0.00;0.00;;;;;;;32.73;29.95;99617.00;5075971;28;20429;-60
2023/10/13 12:32:30;;;;;;;0.00;0.00;;;;;;;33.22;29.40;99615.03;5086039;28;20387;-59
2023/10/13 12:54:04;;;;;;;0.00;0.00;;;;;;;33.84;28.22;99580.91;5073993;28;20040;-58
2023/10/13 12:56:30;;;;;;;0.00;0.00;;;;;;;34.44;28.26;99584.44;5078421;28;20027;-58
2023/10/13 12:58:55;;;;;;;0.00;0.00;;;;;;;35.15;27.47;99577.09;5071294;28;20040;-58
2023/10/13 13:01:24;;;;;;;0.00;0.00;;;;;;;35.61;27.07;99577.78;5075802;28;20047;-57
2023/10/13 13:03:58;;;;;;;0.00;0.00;;;;;;;35.85;26.82;99567.00;5083546;28;20364;-58
2023/10/13 13:06:25;;;;;;;0.00;0.00;;;;;;;36.18;26.45;99573.19;5083129;28;20028;-57
2023/10/13 13:08:55;;;;;;;0.00;0.00;;;;;;;36.11;26.28;99569.63;5080750;28;20031;-58
2023/10/13 13:11:20;;;;;;;0.00;0.00;;;;;;;36.30;26.49;99565.81;5080154;28;20090;-58
2023/10/13 13:13:47;;;;;;;0.00;0.00;;;;;;;36.45;25.59;99563.59;5073743;28;20028;-58
2023/10/13 13:16:13;;;;;;;0.00;0.00;;;;;;;36.27;25.16;99566.28;5076653;28;20028;-58
2023/10/13 13:18:39;;;;;;;0.00;0.00;;;;;;;36.31;25.15;99557.28;5081980;28;20114;-57
2023/10/13 13:21:06;;;;;;;0.00;0.00;;;;;;;36.29;25.59;99542.84;5080437;28;20109;-58
2023/10/13 13:23:34;;;;;;;0.00;0.00;;;;;;;36.36;25.66;99545.56;5077815;28;20104;-58
2023/10/13 13:26:00;;;;;;;0.00;0.00;;;;;;;36.32;25.68;99547.94;5071862;28;20040;-57
2023/10/13 13:28:28;;;;;;;0.00;0.00;;;;;;;36.42;25.25;99537.19;5069602;28;20033;-58
2023/10/13 13:30:54;;;;;;;0.00;0.00;;;;;;;36.19;25.53;99530.56;5075786;28;20103;-58
2023/10/13 13:33:23;;;;;;;0.00;0.00;;;;;;;35.89;25.74;99530.34;5083512;28;20613;-58
2023/10/13 13:35:49;;;;;;;0.00;0.00;;;;;;;35.70;25.60;99532.16;5081986;28;20032;-58
2023/10/13 13:38:33;;;;;;;0.00;0.00;;;;;;;35.90;25.96;99520.13;5072409;28;20384;-58
2023/10/13 13:41:01;;;;;;;0.00;0.00;;;;;;;35.97;25.85;99526.44;5087343;28;20031;-58
2023/10/13 13:43:40;;;;;;;0.00;0.00;;;;;;;35.08;25.83;99518.19;5093287;28;20563;-58
2023/10/13 13:46:11;;;;;;;0.00;0.00;;;;;;;34.76;26.93;99509.97;5093340;28;20152;-58
2023/10/13 13:48:38;;;;;;;0.00;0.00;;;;;;;34.24;27.51;99502.59;5083925;28;20044;-58
2023/10/13 13:51:12;;;;;;;0.00;0.00;;;;;;;33.69;27.97;99494.69;5092808;28;20833;-58
2023/10/13 13:53:42;;;;;;;0.00;0.00;;;;;;;33.31;28.43;99484.16;5087604;28;20364;-59
2023/10/13 13:56:08;;;;;;;0.00;0.00;;;;;;;33.04;28.87;99487.91;5085594;28;20035;-59
2023/10/13 13:58:33;;;;;;;0.00;0.00;;;;;;;32.78;29.98;99473.97;5080745;28;20023;-59
2023/10/13 14:01:12;;;;;;;0.00;0.00;;;;;;;32.61;29.13;99472.63;5093123;28;20061;-60
2023/10/13 14:03:47;;;;;;;0.00;0.00;;;;;;;32.51;29.30;99466.63;5079057;28;20036;-59
2023/10/13 14:06:37;;;;;;;0.00;0.00;;;;;;;32.36;29.46;99463.09;5086174;28;20076;-59
2023/10/13 14:09:05;;;;;;;0.00;0.00;;;;;;;32.27;28.53;99458.81;5082820;28;20515;-59
2023/10/13 14:14:36;;;;;;;0.00;0.00;;;;;;;31.98;29.11;99451.63;5074830;28;20040;-59
2023/10/13 14:17:07;;;;;;;0.00;0.00;;;;;;;31.68;28.72;99454.72;5078936;28;20040;-59
2023/10/13 14:19:33;;;;;;;0.00;0.00;;;;;;;31.56;29.25;99448.91;5084352;28;20029;-59
2023/10/13 14:22:06;;;;;;;0.00;0.00;;;;;;;31.40;28.80;99448.31;5078092;28;20057;-59
2023/10/13 14:24:34;;;;;;;0.00;0.00;;;;;;;31.28;28.83;99438.84;5084640;28;20509;-60
2023/10/13 14:27:12;;;;;;;0.00;0.00;;;;;;;31.13;28.82;99427.91;5078130;28;20487;-60
2023/10/13 14:29:42;;;;;;;0.00;0.00;;;;;;;30.92;28.52;99434.22;5078401;28;20483;-59
2023/10/13 14:32:15;;;;;;;0.00;0.00;;;;;;;30.84;28.58;99425.25;5073603;28;20511;-59
2023/10/13 14:34:44;;;;;;;0.00;0.00;;;;;;;30.85;29.16;99432.44;5073825;28;20422;-59
2023/10/13 14:37:13;;;;;;;0.00;0.00;;;;;;;30.70;28.94;99435.19;5077251;28;20174;-60
2023/10/13 14:39:41;;;;;;;0.00;0.00;;;;;;;30.68;29.12;99429.03;5081874;28;20024;-59
2023/10/13 14:42:06;;;;;;;0.00;0.00;;;;;;;30.67;29.07;99419.09;5080164;28;20032;-59
2023/10/13 14:44:33;;;;;;;0.00;0.00;;;;;;;30.58;28.67;99414.75;5083789;28;20430;-60
2023/10/13 14:46:59;;;;;;;0.00;0.00;;;;;;;30.56;28.88;99416.81;5070794;28;20028;-59
2023/10/13 14:49:24;;;;;;;0.00;0.00;;;;;;;30.51;29.56;99411.03;5088088;28;20028;-59
2023/10/13 14:51:50;;;;;;;0.00;0.00;;;;;;;30.39;28.54;99401.63;5091864;28;20024;-59
2023/10/13 14:54:16;;;;;;;0.00;0.00;;;;;;;30.42;28.86;99403.13;5088775;28;20107;-59
2023/10/13 14:56:42;;;;;;;0.00;0.00;;;;;;;30.35;29.16;99402.16;5087899;28;20032;-60
2023/10/13 14:59:17;;;;;;;0.00;0.00;;;;;;;30.33;29.39;99394.13;5086415;28;20522;-59
2023/10/13 15:01:43;;;;;;;0.00;0.00;;;;;;;30.30;29.61;99386.28;5088435;28;20024;-58
2023/10/13 15:04:08;;;;;;;0.00;0.00;;;;;;;30.17;30.21;99388.81;5077689;28;20028;-57
2023/10/13 15:06:34;;;;;;;0.00;0.00;;;;;;;30.08;29.97;99387.22;5077690;28;20047;-58
2023/10/13 15:09:00;;;;;;;0.00;0.00;;;;;;;29.99;29.58;99382.84;5086641;28;20035;-58
2023/10/13 15:11:28;;;;;;;0.00;0.00;;;;;;;29.98;29.92;99388.53;5086877;28;20040;-57
2023/10/13 15:13:55;;;;;;;0.00;0.00;;;;;;;29.95;30.54;99375.19;5082895;28;20039;-58
2023/10/13 15:16:23;;;;;;;0.00;0.00;;;;;;;29.89;31.21;99373.19;5091573;28;20020;-58
2023/10/13 15:18:51;;;;;;;0.00;0.00;;;;;;;29.75;31.31;99374.91;5088963;28;20032;-58
2023/10/13 15:21:39;;;;;;;0.00;0.00;;;;;;;29.60;32.45;99373.97;5091652;28;20024;-58
2023/10/13 15:24:16;;;;;;;0.00;0.00;;;;;;;29.46;32.22;99372.91;5081270;28;20028;-57
2023/10/13 15:26:52;;;;;;;0.00;0.00;;;;;;;29.43;31.79;99372.41;5087497;28;20028;-58
2023/10/13 15:29:24;;;;;;;0.00;0.00;;;;;;;29.35;30.92;99358.78;5084786;28;20043;-58
2023/10/13 15:32:04;;;;;;;0.00;0.00;;;;;;;29.33;31.03;99350.75;5089646;28;20036;-58
2023/10/13 15:34:31;;;;;;;0.00;0.00;;;;;;;29.36;30.48;99360.47;5085745;28;20034;-57
2023/10/13 15:36:57;;;;;;;0.00;0.00;;;;;;;29.27;30.36;99350.66;5082987;28;20493;-58
2023/10/13 15:39:23;;;;;;;0.00;0.00;;;;;;;29.24;28.94;99356.50;5090298;28;20034;-57
2023/10/13 15:41:53;;;;;;;0.00;0.00;;;;;;;29.20;29.91;99355.16;5081118;28;20032;-57
2023/10/13 15:44:20;;;;;;;0.00;0.00;;;;;;;29.16;28.70;99342.88;5081597;28;20060;-57
2023/10/13 15:46:49;;;;;;;0.00;0.00;;;;;;;29.16;29.28;99342.88;5090342;28;20027;-57